createdAt,value
2019-04-21T00:00:31.871Z,6.28
2019-04-21T00:03:07.445Z,6.42
2019-04-21T00:05:53.288Z,6.35
2019-04-21T00:08:30.906Z,6.22
2019-04-21T00:10:57.836Z,6.20
2019-04-21T00:13:21.113Z,6.28
2019-04-21T00:15:46.361Z,6.00
2019-04-21T00:18:41.816Z,6.50
2019-04-21T00:21:14.890Z,6.10
2019-04-21T00:23:53.829Z,6.28
2019-04-21T00:26:23.871Z,5.62
2019-04-21T00:29:03.674Z,5.87
2019-04-21T00:31:32.239Z,5.28
2019-04-21T00:33:44.736Z,5.97
2019-04-21T00:36:21.981Z,6.25
2019-04-21T00:39:17.096Z,5.35
2019-04-21T00:41:38.070Z,5.05
2019-04-21T00:44:04.720Z,5.65
2019-04-21T00:46:34.801Z,5.53
2019-04-21T00:49:05.921Z,5.30
2019-04-21T00:52:02.206Z,5.22
2019-04-21T00:54:35.868Z,5.42
2019-04-21T00:56:56.506Z,5.08
2019-04-21T00:59:25.882Z,5.62
2019-04-21T01:01:55.149Z,4.90
2019-04-21T01:04:30.693Z,5.50
2019-04-21T01:07:05.603Z,5.00
2019-04-21T01:09:27.910Z,5.33
2019-04-21T01:12:03.814Z,5.17
2019-04-21T01:14:46.935Z,4.85
2019-04-21T01:17:04.436Z,4.97
2019-04-21T01:19:38.691Z,5.03
2019-04-21T01:21:48.527Z,4.85
2019-04-21T01:24:25.926Z,4.80
2019-04-21T01:27:00.778Z,4.50
2019-04-21T01:29:41.450Z,4.83
2019-04-21T01:32:19.345Z,4.83
2019-04-21T01:34:49.677Z,4.35
2019-04-21T01:37:10.466Z,4.75
2019-04-21T01:39:51.552Z,4.70
2019-04-21T01:42:15.863Z,5.03
2019-04-21T01:44:49.881Z,4.92
2019-04-21T01:47:18.874Z,5.33
2019-04-21T01:49:43.122Z,5.10
2019-04-21T01:52:33.838Z,4.78
2019-04-21T01:55:25.221Z,4.90
2019-04-21T01:57:53.958Z,5.15
2019-04-21T02:00:39.373Z,4.95
2019-04-21T02:03:28.615Z,4.75
2019-04-21T02:05:44.413Z,5.05
2019-04-21T02:08:11.007Z,4.78
2019-04-21T02:10:49.524Z,4.37
2019-04-21T02:13:11.764Z,4.65
2019-04-21T02:15:59.371Z,5.08
2019-04-21T02:18:23.095Z,4.70
2019-04-21T02:20:41.236Z,5.33
2019-04-21T02:23:34.429Z,5.25
2019-04-21T02:25:57.546Z,4.92
2019-04-21T02:28:40.463Z,5.05
2019-04-21T02:31:14.176Z,5.50
2019-04-21T02:33:45.947Z,5.45
2019-04-21T02:36:23.305Z,4.70
2019-04-21T02:38:47.739Z,5.17
2019-04-21T02:41:35.142Z,5.53
2019-04-21T02:43:48.278Z,4.95
2019-04-21T02:46:22.319Z,5.60
2019-04-21T02:51:21.854Z,5.50
2019-04-21T02:54:05.140Z,5.50
2019-04-21T02:56:28.056Z,5.55
2019-04-21T03:04:47.192Z,5.10
2019-04-21T03:12:18.161Z,5.45
2019-04-21T03:17:43.696Z,5.17
2019-04-21T03:22:24.869Z,5.30
2019-04-21T03:30:19.992Z,5.80
2019-04-21T03:37:39.775Z,5.53
2019-04-21T03:40:06.796Z,5.70
2019-04-21T03:45:16.862Z,5.12
2019-04-21T03:47:39.656Z,5.12
2019-04-21T03:50:16.140Z,5.78
2019-04-21T03:52:48.178Z,5.75
2019-04-21T03:55:50.430Z,6.10
2019-04-21T04:04:06.279Z,5.17
2019-04-21T04:07:05.685Z,5.50
2019-04-21T04:11:56.595Z,5.15
2019-04-21T04:14:37.088Z,5.70
2019-04-21T04:17:11.938Z,5.85
2019-04-21T04:19:41.954Z,5.90
2019-04-21T04:22:15.114Z,5.67
2019-04-21T04:24:42.963Z,5.17
2019-04-21T04:32:07.954Z,5.33
2019-04-21T04:45:18.162Z,5.10
2019-04-21T04:47:47.864Z,5.00
2019-04-21T04:50:12.552Z,5.42
2019-04-21T04:55:18.555Z,5.62
2019-04-21T04:57:53.251Z,5.60
2019-04-21T05:00:25.847Z,5.42
2019-04-21T05:02:52.320Z,5.83
2019-04-21T05:10:29.869Z,5.70
2019-04-21T05:12:50.727Z,6.20
2019-04-21T05:15:16.177Z,5.72
2019-04-21T05:20:41.860Z,5.62
2019-04-21T05:22:56.098Z,6.00
2019-04-21T05:25:18.497Z,5.50
2019-04-21T05:27:47.259Z,5.72
2019-04-21T05:30:45.054Z,6.22
2019-04-21T05:33:33.237Z,6.17
2019-04-21T05:36:11.404Z,5.72
2019-04-21T05:38:57.006Z,5.90
2019-04-21T05:41:21.308Z,6.30
2019-04-21T05:44:05.038Z,5.60
2019-04-21T05:46:32.384Z,5.58
2019-04-21T05:49:09.292Z,5.78
2019-04-21T05:51:55.758Z,7.10
2019-04-21T05:54:53.063Z,6.37
2019-04-21T05:57:02.556Z,6.70
2019-04-21T05:59:32.416Z,6.30
2019-04-21T06:02:14.024Z,6.62
2019-04-21T06:07:15.342Z,6.70
2019-04-21T06:09:48.855Z,6.00
2019-04-21T06:12:11.729Z,6.35
2019-04-21T06:14:49.426Z,5.97
2019-04-21T06:17:25.568Z,6.05
2019-04-21T06:22:19.176Z,5.20
2019-04-21T06:27:27.996Z,5.50
2019-04-21T06:29:54.661Z,5.25
2019-04-21T06:32:45.973Z,5.08
2019-04-21T06:35:12.698Z,5.00
2019-04-21T06:40:15.677Z,4.80
2019-04-21T06:42:43.281Z,5.03
2019-04-21T06:45:32.127Z,5.08
2019-04-21T06:50:10.715Z,5.40
2019-04-21T06:52:50.226Z,5.40
2019-04-21T06:55:15.264Z,7.03
2019-04-21T06:57:46.318Z,6.17
2019-04-21T07:00:15.207Z,6.33
2019-04-21T07:03:00.033Z,5.25
2019-04-21T07:05:20.316Z,5.75
2019-04-21T07:08:11.310Z,6.30
2019-04-21T07:10:30.484Z,5.08
2019-04-21T07:12:59.297Z,5.37
2019-04-21T07:15:53.308Z,5.47
2019-04-21T07:18:19.163Z,5.28
2019-04-21T07:20:53.151Z,5.60
2019-04-21T07:23:24.039Z,5.50
2019-04-21T07:26:01.027Z,4.95
2019-04-21T07:28:30.176Z,4.67
2019-04-21T07:31:03.367Z,5.40
2019-04-21T07:33:49.481Z,5.70
2019-04-21T07:36:01.504Z,5.92
2019-04-21T07:38:27.571Z,5.85
2019-04-21T07:40:56.736Z,5.10
2019-04-21T07:43:25.877Z,5.58
2019-04-21T07:45:58.622Z,5.08
2019-04-21T07:48:43.209Z,4.60
2019-04-21T07:51:31.620Z,5.22
2019-04-21T07:54:14.011Z,4.75
2019-04-21T07:56:19.960Z,4.70
2019-04-21T07:59:02.611Z,4.75
2019-04-21T08:01:35.505Z,4.90
2019-04-21T08:04:24.853Z,3.87
2019-04-21T08:06:44.892Z,4.65
2019-04-21T08:09:11.914Z,4.97
2019-04-21T08:11:36.691Z,4.80
2019-04-21T08:14:17.017Z,5.03
2019-04-21T08:16:52.718Z,4.65
2019-04-21T08:19:18.605Z,4.50
2019-04-21T08:22:00.087Z,4.62
2019-04-21T08:24:30.635Z,5.00
2019-04-21T08:27:05.329Z,4.85
2019-04-21T08:29:38.063Z,4.30
2019-04-21T08:32:11.017Z,4.25
2019-04-21T08:34:34.823Z,4.65
2019-04-21T08:37:13.919Z,4.83
2019-04-21T08:39:49.547Z,4.45
2019-04-21T08:42:16.899Z,4.37
2019-04-21T08:44:46.809Z,4.42
2019-04-21T08:47:20.430Z,3.85
2019-04-21T08:49:47.528Z,4.42
2019-04-21T08:52:40.601Z,4.25
2019-04-21T08:55:11.144Z,4.42
2019-04-21T08:58:03.915Z,4.30
2019-04-21T09:00:26.338Z,3.95
2019-04-21T09:03:02.461Z,4.40
2019-04-21T09:05:29.700Z,4.10
2019-04-21T09:08:06.268Z,4.37
2019-04-21T09:10:35.377Z,3.87
2019-04-21T09:13:04.501Z,3.77
2019-04-21T09:15:36.443Z,4.15
2019-04-21T09:18:03.059Z,4.08
2019-04-21T09:20:46.068Z,4.10
2019-04-21T09:23:13.564Z,4.03
2019-04-21T09:25:47.334Z,4.05
2019-04-21T09:28:11.119Z,3.90
2019-04-21T09:30:33.874Z,3.52
2019-04-21T09:33:05.716Z,4.00
2019-04-21T09:35:35.903Z,4.12
2019-04-21T09:38:17.129Z,4.03
2019-04-21T09:40:42.393Z,4.10
2019-04-21T09:43:11.547Z,4.10
2019-04-21T09:45:40.499Z,4.22
2019-04-21T09:48:16.462Z,4.33
2019-04-21T09:50:41.559Z,3.80
2019-04-21T09:53:20.442Z,3.50
2019-04-21T09:55:53.589Z,3.90
2019-04-21T09:58:24.315Z,3.60
2019-04-21T10:01:01.503Z,3.00
2019-04-21T10:03:21.145Z,3.20
2019-04-21T10:05:51.862Z,3.60
2019-04-21T10:08:22.816Z,3.17
2019-04-21T10:10:54.707Z,3.17
2019-04-21T10:16:07.349Z,2.60
2019-04-21T10:18:37.964Z,22.37
2019-04-21T10:21:07.719Z,11.48
2019-04-21T10:23:39.412Z,4.72
2019-04-21T10:28:39.112Z,3.52
2019-04-21T10:31:09.060Z,3.62
2019-04-21T10:33:39.846Z,4.07
2019-04-21T10:36:09.489Z,3.22
2019-04-21T10:38:44.735Z,3.60
2019-04-21T10:41:11.802Z,3.50
2019-04-21T10:43:42.771Z,3.52
2019-04-21T10:46:12.856Z,3.55
2019-04-21T10:48:43.151Z,3.30
2019-04-21T10:51:13.080Z,3.10
2019-04-21T10:53:47.705Z,3.47
2019-04-21T10:56:25.147Z,3.50
2019-04-21T10:58:50.072Z,3.80
2019-04-21T11:01:23.066Z,3.37
2019-04-21T11:04:29.873Z,3.40
2019-04-21T11:06:59.449Z,3.37
2019-04-21T11:09:26.595Z,4.30
2019-04-21T11:11:57.740Z,3.35
2019-04-21T11:14:27.454Z,3.60
2019-04-21T11:16:58.465Z,3.45
2019-04-21T11:19:28.597Z,3.27
2019-04-21T11:21:58.784Z,3.58
2019-04-21T11:24:29.165Z,3.58
2019-04-21T11:27:00.112Z,3.40
2019-04-21T11:29:31.019Z,3.20
2019-04-21T11:32:01.037Z,4.03
2019-04-21T11:34:31.451Z,4.50
2019-04-21T11:37:01.872Z,3.40
2019-04-21T11:39:42.154Z,3.00
2019-04-21T11:42:10.103Z,3.25
2019-04-21T11:44:39.704Z,3.40
2019-04-21T11:47:18.486Z,3.55
2019-04-21T11:49:49.397Z,3.10
2019-04-21T11:52:20.785Z,3.42
2019-04-21T11:54:50.952Z,3.02
2019-04-21T11:57:26.456Z,3.40
2019-04-21T11:59:51.748Z,3.50
2019-04-21T12:02:21.585Z,3.37
2019-04-21T12:04:51.637Z,3.15
2019-04-21T12:07:21.197Z,3.40
2019-04-21T12:09:51.309Z,3.17
2019-04-21T12:12:21.277Z,3.47
2019-04-21T12:14:52.113Z,3.12
2019-04-21T12:17:21.776Z,3.33
2019-04-21T12:19:52.606Z,3.60
2019-04-21T12:22:28.212Z,3.08
2019-04-21T12:24:53.721Z,3.12
2019-04-21T12:27:23.318Z,3.23
2019-04-21T12:29:53.468Z,3.13
2019-04-21T12:32:48.570Z,3.05
2019-04-21T12:35:19.601Z,3.20
2019-04-21T12:37:49.227Z,3.58
2019-04-21T12:40:18.852Z,3.47
2019-04-21T12:42:48.605Z,3.37
2019-04-21T12:45:19.290Z,3.30
2019-04-21T12:47:50.674Z,3.30
2019-04-21T12:50:21.370Z,3.20
2019-04-21T12:52:51.662Z,3.10
2019-04-21T12:55:26.158Z,2.92
2019-04-21T12:57:53.199Z,3.08
2019-04-21T13:00:22.978Z,3.25
2019-04-21T13:02:53.892Z,3.40
2019-04-21T13:05:23.635Z,3.10
2019-04-21T13:07:53.373Z,3.10
2019-04-21T13:10:24.200Z,3.15
2019-04-21T13:12:54.268Z,3.02
2019-04-21T13:15:25.266Z,3.25
2019-04-21T13:17:56.229Z,3.27
2019-04-21T13:20:27.343Z,2.72
2019-04-21T13:22:57.810Z,3.15
2019-04-21T13:27:58.584Z,2.80
2019-04-21T13:30:28.491Z,3.10
2019-04-21T13:32:59.159Z,2.77
2019-04-21T13:35:28.997Z,2.70
2019-04-21T13:37:58.599Z,2.70
2019-04-21T13:41:01.118Z,3.00
2019-04-21T13:43:17.077Z,2.62
2019-04-21T13:45:47.811Z,2.90
2019-04-21T13:48:18.880Z,3.27
2019-04-21T13:50:49.072Z,2.60
2019-04-21T13:53:18.781Z,3.08
2019-04-21T13:55:50.736Z,3.08
2019-04-21T13:58:20.425Z,2.92
2019-04-21T14:00:50.558Z,3.30
2019-04-21T14:03:25.157Z,3.17
2019-04-21T14:05:54.577Z,2.70
2019-04-21T14:08:27.370Z,2.72
2019-04-21T14:10:57.570Z,2.72
2019-04-21T14:13:27.250Z,3.20
2019-04-21T14:15:57.955Z,2.75
2019-04-21T14:18:28.777Z,2.65
2019-04-21T14:20:58.523Z,2.62
2019-04-21T14:23:37.707Z,3.40
2019-04-21T14:26:01.745Z,2.72
2019-04-21T14:28:32.175Z,2.95
2019-04-21T14:31:04.176Z,2.70
2019-04-21T14:33:34.247Z,2.92
2019-04-21T14:36:05.229Z,2.60
2019-04-21T14:38:36.651Z,2.83
2019-04-21T14:41:06.351Z,2.42
2019-04-21T14:43:36.214Z,3.00
2019-04-21T14:46:17.190Z,2.75
2019-04-21T14:49:13.086Z,2.62
2019-04-21T14:51:49.657Z,2.95
2019-04-21T14:54:26.796Z,2.60
2019-04-21T14:56:57.688Z,2.52
2019-04-21T14:59:27.266Z,2.70
2019-04-21T15:01:57.921Z,2.85
2019-04-21T15:04:27.985Z,3.20
2019-04-21T15:06:59.199Z,2.75
2019-04-21T15:09:31.254Z,3.22
2019-04-21T15:12:02.361Z,2.98
2019-04-21T15:14:32.013Z,2.98
2019-04-21T15:17:02.885Z,2.83
2019-04-21T15:19:32.858Z,3.10
2019-04-21T15:22:02.709Z,2.70
2019-04-21T15:24:32.450Z,3.12
2019-04-21T15:27:03.079Z,3.25
2019-04-21T15:29:33.031Z,2.92
2019-04-21T15:32:02.642Z,2.83
2019-04-21T15:34:32.179Z,2.72
2019-04-21T15:37:02.002Z,3.17
2019-04-21T15:39:31.886Z,2.67
2019-04-21T15:42:02.720Z,3.27
2019-04-21T15:44:32.541Z,3.08
2019-04-21T15:47:02.178Z,2.80
2019-04-21T15:49:58.839Z,3.10
2019-04-21T15:52:22.238Z,3.12
2019-04-21T15:54:54.372Z,3.05
2019-04-21T15:57:30.897Z,3.05
2019-04-21T16:00:16.423Z,2.90
2019-04-21T16:02:46.786Z,3.05
2019-04-21T16:07:47.826Z,2.90
2019-04-21T16:10:31.166Z,3.12
2019-04-21T16:12:49.884Z,3.50
2019-04-21T16:15:20.795Z,2.72
2019-04-21T16:17:51.156Z,3.10
2019-04-21T16:22:50.582Z,2.77
2019-04-21T16:25:21.040Z,3.27
2019-04-21T16:30:21.833Z,3.08
2019-04-21T16:32:52.262Z,2.85
2019-04-21T16:35:22.185Z,3.40
2019-04-21T16:37:55.765Z,3.17
2019-04-21T16:40:25.409Z,2.95
2019-04-21T16:42:56.256Z,2.77
2019-04-21T16:45:25.987Z,6.30
2019-04-21T16:47:57.098Z,4.70
2019-04-21T16:50:27.958Z,3.20
2019-04-21T16:53:05.993Z,3.10
2019-04-21T16:55:49.363Z,2.72
2019-04-21T16:58:32.591Z,3.00
2019-04-21T17:01:12.767Z,7.28
2019-04-21T17:03:40.162Z,9.63
2019-04-21T17:06:11.097Z,5.80
2019-04-21T17:08:43.117Z,5.87
2019-04-21T17:11:19.307Z,4.62
2019-04-21T17:13:45.677Z,4.40
2019-04-21T17:16:44.837Z,4.22
2019-04-21T17:18:57.540Z,4.45
2019-04-21T17:21:19.284Z,3.37
2019-04-21T17:23:50.560Z,3.90
2019-04-21T17:26:21.307Z,3.15
2019-04-21T17:28:52.194Z,3.10
2019-04-21T17:31:22.355Z,3.42
2019-04-21T17:34:02.087Z,3.10
2019-04-21T17:36:25.200Z,3.70
2019-04-21T17:41:33.425Z,2.98
2019-04-21T17:43:56.463Z,2.87
2019-04-21T17:48:59.095Z,4.53
2019-04-21T17:52:02.962Z,7.97
2019-04-21T17:54:41.894Z,5.20
2019-04-21T17:57:30.255Z,3.17
2019-04-21T18:00:09.775Z,3.30
2019-04-21T18:02:35.110Z,3.72
2019-04-21T18:05:02.369Z,3.47
2019-04-21T18:07:46.715Z,3.70
2019-04-21T18:10:04.439Z,8.58
2019-04-21T18:12:33.846Z,8.73
2019-04-21T18:14:56.766Z,5.60
2019-04-21T18:17:20.570Z,3.17
2019-04-21T18:19:53.246Z,3.58
2019-04-21T18:22:58.544Z,3.00
2019-04-21T18:25:42.326Z,3.12
2019-04-21T18:28:00.770Z,3.05
2019-04-21T18:30:40.668Z,3.00
2019-04-21T18:33:15.591Z,3.33
2019-04-21T18:36:02.429Z,3.05
2019-04-21T18:39:06.838Z,2.77
2019-04-21T18:41:17.426Z,2.60
2019-04-21T18:44:15.198Z,3.17
2019-04-21T18:46:49.075Z,3.67
2019-04-21T18:49:34.941Z,3.22
2019-04-21T18:52:41.472Z,3.25
2019-04-21T18:55:09.621Z,2.80
2019-04-21T18:57:37.329Z,2.50
2019-04-21T19:00:08.627Z,2.85
2019-04-21T19:02:42.529Z,2.87
2019-04-21T19:05:13.627Z,2.75
2019-04-21T19:08:01.341Z,3.12
2019-04-21T19:15:27.755Z,4.42
2019-04-21T19:20:34.860Z,4.22
2019-04-21T19:23:08.390Z,3.12
2019-04-21T19:25:42.510Z,3.15
2019-04-21T19:28:09.760Z,3.17
2019-04-21T19:30:50.719Z,2.60
2019-04-21T19:33:14.468Z,2.83
2019-04-21T19:35:31.960Z,2.67
2019-04-21T19:38:07.048Z,3.30
2019-04-21T19:40:52.220Z,2.83
2019-04-21T19:43:29.429Z,3.25
2019-04-21T19:45:54.235Z,3.33
2019-04-21T19:48:27.035Z,3.20
2019-04-21T19:51:01.316Z,3.00
2019-04-21T19:53:24.327Z,3.00
2019-04-21T19:55:43.989Z,2.70
2019-04-21T19:58:14.889Z,2.80
2019-04-21T20:00:48.426Z,3.05
2019-04-21T20:03:16.948Z,3.08
2019-04-21T20:05:59.336Z,3.08
2019-04-21T20:08:32.599Z,3.02
2019-04-21T20:11:10.160Z,3.10
2019-04-21T20:13:52.700Z,3.58
2019-04-21T20:16:12.978Z,3.77
2019-04-21T20:18:34.245Z,3.45
2019-04-21T20:20:56.411Z,3.72
2019-04-21T20:23:31.768Z,3.17
2019-04-21T20:26:02.297Z,3.20
2019-04-21T20:28:42.712Z,3.20
2019-04-21T20:31:20.366Z,5.55
2019-04-21T20:34:02.285Z,6.70
2019-04-21T20:38:48.407Z,3.83
2019-04-21T20:41:25.708Z,3.62
2019-04-21T20:44:05.857Z,3.67
2019-04-21T20:46:31.416Z,3.33
2019-04-21T20:48:56.992Z,3.30
2019-04-21T20:51:27.981Z,4.05
2019-04-21T20:54:00.542Z,4.10
2019-04-21T20:56:30.895Z,3.77
2019-04-21T20:59:09.020Z,4.35
2019-04-21T21:01:41.512Z,4.58
2019-04-21T21:04:06.384Z,4.30
2019-04-21T21:06:42.370Z,3.47
2019-04-21T21:09:22.114Z,3.87
2019-04-21T21:12:13.435Z,3.27
2019-04-21T21:14:29.271Z,3.67
2019-04-21T21:17:04.771Z,3.92
2019-04-21T21:19:34.796Z,3.60
2019-04-21T21:21:59.076Z,3.35
2019-04-21T21:24:42.041Z,3.90
2019-04-21T21:27:05.561Z,3.33
2019-04-21T21:29:33.109Z,3.37
2019-04-21T21:32:16.580Z,3.60
2019-04-21T21:37:21.750Z,3.80
2019-04-21T21:39:55.222Z,3.35
2019-04-21T21:42:01.957Z,3.65
2019-04-21T21:44:30.327Z,3.65
2019-04-21T21:47:12.236Z,3.90
2019-04-21T21:49:43.966Z,3.77
2019-04-21T21:52:13.232Z,3.35
2019-04-21T21:54:33.940Z,3.33
2019-04-21T21:57:04.817Z,3.65
2019-04-21T21:59:38.219Z,3.67
2019-04-21T22:02:09.447Z,3.92
2019-04-21T22:04:44.481Z,3.45
2019-04-21T22:07:14.810Z,3.37
2019-04-21T22:09:41.749Z,3.27
2019-04-21T22:12:14.066Z,3.52
2019-04-21T22:14:48.419Z,2.92
2019-04-21T22:17:29.475Z,3.58
2019-04-21T22:20:08.125Z,3.20
2019-04-21T22:22:34.068Z,3.58
2019-04-21T22:24:59.103Z,3.22
2019-04-21T22:27:21.287Z,3.72
2019-04-21T22:29:56.504Z,3.98
2019-04-21T22:32:28.543Z,3.80
2019-04-21T22:34:58.309Z,3.67
2019-04-21T22:37:39.169Z,4.05
2019-04-21T22:40:11.259Z,3.75
2019-04-21T22:42:33.196Z,3.80
2019-04-21T22:45:00.629Z,3.50
2019-04-21T22:47:34.201Z,3.95
2019-04-21T22:50:02.676Z,4.12
2019-04-21T22:52:33.641Z,4.37
2019-04-21T22:55:10.782Z,3.98
2019-04-21T22:57:43.424Z,4.05
2019-04-21T23:00:10.782Z,4.05
2019-04-21T23:02:40.687Z,4.35
2019-04-21T23:05:11.398Z,4.00
2019-04-21T23:07:49.493Z,4.12
2019-04-21T23:10:13.484Z,4.10
2019-04-21T23:12:44.280Z,3.90
2019-04-21T23:15:18.599Z,4.17
2019-04-21T23:17:59.562Z,3.50
2019-04-21T23:20:40.592Z,3.52
2019-04-21T23:23:23.689Z,3.47
2019-04-21T23:25:36.503Z,3.40
2019-04-21T23:28:09.129Z,4.20
2019-04-21T23:30:48.525Z,3.87
2019-04-21T23:33:00.618Z,4.17
2019-04-21T23:35:30.449Z,3.98
2019-04-21T23:37:58.694Z,4.05
2019-04-21T23:40:28.918Z,3.87
2019-04-21T23:43:00.049Z,3.98
2019-04-21T23:45:35.904Z,4.72
2019-04-21T23:48:14.648Z,3.90
2019-04-21T23:50:43.133Z,4.00
2019-04-21T23:53:03.907Z,4.33
2019-04-21T23:55:34.950Z,4.12
2019-04-21T23:58:11.391Z,4.00
